sensor_id;sensor_type;location;lat;lon;timestamp;temperature;humidity
46754;DHT22;32500;50.620;3.400;2023-03-23T00:01:47;16.20;73.80
46754;DHT22;32500;50.620;3.400;2023-03-23T00:04:16;16.20;73.90
46754;DHT22;32500;50.620;3.400;2023-03-23T00:06:42;16.20;73.80
46754;DHT22;32500;50.620;3.400;2023-03-23T00:09:13;16.20;73.80
46754;DHT22;32500;50.620;3.400;2023-03-23T00:11:41;16.20;73.80
46754;DHT22;32500;50.620;3.400;2023-03-23T00:14:09;16.20;73.80
46754;DHT22;32500;50.620;3.400;2023-03-23T00:16:39;16.20;73.80
46754;DHT22;32500;50.620;3.400;2023-03-23T00:19:11;16.20;73.80
46754;DHT22;32500;50.620;3.400;2023-03-23T00:21:41;16.20;73.80
46754;DHT22;32500;50.620;3.400;2023-03-23T00:24:08;16.20;73.80
46754;DHT22;32500;50.620;3.400;2023-03-23T00:26:36;16.20;73.80
46754;DHT22;32500;50.620;3.400;2023-03-23T00:29:07;16.20;73.70
46754;DHT22;32500;50.620;3.400;2023-03-23T00:31:33;16.10;73.70
46754;DHT22;32500;50.620;3.400;2023-03-23T00:34:02;16.10;73.70
46754;DHT22;32500;50.620;3.400;2023-03-23T00:36:32;16.10;73.80
46754;DHT22;32500;50.620;3.400;2023-03-23T00:39:03;16.10;73.70
46754;DHT22;32500;50.620;3.400;2023-03-23T00:41:29;16.10;73.70
46754;DHT22;32500;50.620;3.400;2023-03-23T00:43:57;16.10;73.80
46754;DHT22;32500;50.620;3.400;2023-03-23T00:46:24;16.20;73.70
46754;DHT22;32500;50.620;3.400;2023-03-23T00:48:50;16.20;73.70
46754;DHT22;32500;50.620;3.400;2023-03-23T00:51:19;16.10;73.70
46754;DHT22;32500;50.620;3.400;2023-03-23T00:53:46;16.10;73.40
46754;DHT22;32500;50.620;3.400;2023-03-23T00:56:13;16.10;73.50
46754;DHT22;32500;50.620;3.400;2023-03-23T00:58:39;16.10;73.70
46754;DHT22;32500;50.620;3.400;2023-03-23T01:01:05;16.10;73.60
46754;DHT22;32500;50.620;3.400;2023-03-23T01:03:31;16.10;73.60
46754;DHT22;32500;50.620;3.400;2023-03-23T01:05:57;16.10;73.70
46754;DHT22;32500;50.620;3.400;2023-03-23T01:08:23;16.10;73.60
46754;DHT22;32500;50.620;3.400;2023-03-23T01:10:50;16.10;73.80
46754;DHT22;32500;50.620;3.400;2023-03-23T01:13:16;16.10;73.70
46754;DHT22;32500;50.620;3.400;2023-03-23T01:15:42;16.10;73.70
46754;DHT22;32500;50.620;3.400;2023-03-23T01:18:09;16.00;73.60
46754;DHT22;32500;50.620;3.400;2023-03-23T01:20:36;16.10;73.70
46754;DHT22;32500;50.620;3.400;2023-03-23T01:23:02;16.00;73.70
46754;DHT22;32500;50.620;3.400;2023-03-23T01:25:30;16.10;73.80
46754;DHT22;32500;50.620;3.400;2023-03-23T01:27:56;16.10;73.70
46754;DHT22;32500;50.620;3.400;2023-03-23T01:30:23;16.00;73.60
46754;DHT22;32500;50.620;3.400;2023-03-23T01:32:50;16.00;73.60
46754;DHT22;32500;50.620;3.400;2023-03-23T01:35:16;16.00;73.60
46754;DHT22;32500;50.620;3.400;2023-03-23T01:37:42;16.00;73.60
46754;DHT22;32500;50.620;3.400;2023-03-23T01:40:09;16.00;73.70
46754;DHT22;32500;50.620;3.400;2023-03-23T01:42:37;16.00;73.60
46754;DHT22;32500;50.620;3.400;2023-03-23T01:45:29;16.00;73.60
46754;DHT22;32500;50.620;3.400;2023-03-23T01:48:11;16.00;73.60
46754;DHT22;32500;50.620;3.400;2023-03-23T01:50:47;16.00;73.60
46754;DHT22;32500;50.620;3.400;2023-03-23T01:53:15;16.00;73.60
46754;DHT22;32500;50.620;3.400;2023-03-23T01:55:43;16.00;73.70
46754;DHT22;32500;50.620;3.400;2023-03-23T01:58:13;16.00;73.70
46754;DHT22;32500;50.620;3.400;2023-03-23T02:00:40;16.00;73.70
46754;DHT22;32500;50.620;3.400;2023-03-23T02:03:08;15.90;73.70
46754;DHT22;32500;50.620;3.400;2023-03-23T02:05:40;16.00;73.70
46754;DHT22;32500;50.620;3.400;2023-03-23T02:08:07;16.00;73.80
46754;DHT22;32500;50.620;3.400;2023-03-23T02:10:35;16.00;73.70
46754;DHT22;32500;50.620;3.400;2023-03-23T02:13:03;16.00;73.60
46754;DHT22;32500;50.620;3.400;2023-03-23T02:27:40;15.90;73.70
46754;DHT22;32500;50.620;3.400;2023-03-23T02:35:56;15.90;73.70
46754;DHT22;32500;50.620;3.400;2023-03-23T02:41:36;15.90;73.70
46754;DHT22;32500;50.620;3.400;2023-03-23T02:44:04;15.90;73.70
46754;DHT22;32500;50.620;3.400;2023-03-23T02:46:32;15.90;73.60
46754;DHT22;32500;50.620;3.400;2023-03-23T02:48:58;15.90;73.70
46754;DHT22;32500;50.620;3.400;2023-03-23T02:51:27;15.90;73.70
46754;DHT22;32500;50.620;3.400;2023-03-23T02:53:55;15.90;73.60
46754;DHT22;32500;50.620;3.400;2023-03-23T02:56:22;15.90;73.70
46754;DHT22;32500;50.620;3.400;2023-03-23T02:58:48;15.90;74.40
46754;DHT22;32500;50.620;3.400;2023-03-23T03:03:58;15.90;73.60
46754;DHT22;32500;50.620;3.400;2023-03-23T03:06:53;15.90;73.60
46754;DHT22;32500;50.620;3.400;2023-03-23T03:11:54;15.90;73.70
46754;DHT22;32500;50.620;3.400;2023-03-23T03:14:37;15.90;73.70
46754;DHT22;32500;50.620;3.400;2023-03-23T03:17:16;15.90;73.60
46754;DHT22;32500;50.620;3.400;2023-03-23T03:19:48;15.90;73.70
46754;DHT22;32500;50.620;3.400;2023-03-23T03:22:15;15.80;73.60
46754;DHT22;32500;50.620;3.400;2023-03-23T03:24:43;15.80;73.60
46754;DHT22;32500;50.620;3.400;2023-03-23T03:27:12;15.90;73.80
46754;DHT22;32500;50.620;3.400;2023-03-23T03:29:41;15.80;73.60
46754;DHT22;32500;50.620;3.400;2023-03-23T03:32:10;15.80;73.70
46754;DHT22;32500;50.620;3.400;2023-03-23T03:34:37;15.80;73.60
46754;DHT22;32500;50.620;3.400;2023-03-23T03:37:05;15.80;73.60
46754;DHT22;32500;50.620;3.400;2023-03-23T03:39:34;15.80;73.70
46754;DHT22;32500;50.620;3.400;2023-03-23T03:42:00;15.80;73.70
46754;DHT22;32500;50.620;3.400;2023-03-23T03:44:26;15.70;73.70
46754;DHT22;32500;50.620;3.400;2023-03-23T03:46:51;15.80;73.80
46754;DHT22;32500;50.620;3.400;2023-03-23T03:49:17;15.80;73.70
46754;DHT22;32500;50.620;3.400;2023-03-23T03:51:43;15.80;73.70
46754;DHT22;32500;50.620;3.400;2023-03-23T03:54:09;15.80;73.60
46754;DHT22;32500;50.620;3.400;2023-03-23T03:56:36;15.80;73.70
46754;DHT22;32500;50.620;3.400;2023-03-23T03:59:09;15.70;73.70
46754;DHT22;32500;50.620;3.400;2023-03-23T04:01:36;15.80;73.80
46754;DHT22;32500;50.620;3.400;2023-03-23T04:04:02;15.70;73.70
46754;DHT22;32500;50.620;3.400;2023-03-23T04:06:29;15.80;73.70
46754;DHT22;32500;50.620;3.400;2023-03-23T04:08:58;15.80;73.60
46754;DHT22;32500;50.620;3.400;2023-03-23T04:11:26;15.80;73.60
46754;DHT22;32500;50.620;3.400;2023-03-23T04:13:52;15.80;73.60
46754;DHT22;32500;50.620;3.400;2023-03-23T04:16:18;15.80;73.60
46754;DHT22;32500;50.620;3.400;2023-03-23T04:18:44;15.80;73.60
46754;DHT22;32500;50.620;3.400;2023-03-23T04:21:10;15.70;73.70
46754;DHT22;32500;50.620;3.400;2023-03-23T04:23:36;15.70;73.70
46754;DHT22;32500;50.620;3.400;2023-03-23T04:26:03;15.80;73.70
46754;DHT22;32500;50.620;3.400;2023-03-23T04:28:29;15.70;73.70
46754;DHT22;32500;50.620;3.400;2023-03-23T04:30:59;15.70;73.60
46754;DHT22;32500;50.620;3.400;2023-03-23T04:33:27;15.70;73.50
46754;DHT22;32500;50.620;3.400;2023-03-23T04:35:54;15.70;73.90
46754;DHT22;32500;50.620;3.400;2023-03-23T04:38:21;15.70;73.70
46754;DHT22;32500;50.620;3.400;2023-03-23T04:40:49;15.70;73.70
46754;DHT22;32500;50.620;3.400;2023-03-23T04:43:20;15.70;73.70
46754;DHT22;32500;50.620;3.400;2023-03-23T04:45:53;15.70;73.70
46754;DHT22;32500;50.620;3.400;2023-03-23T04:48:25;15.70;73.70
46754;DHT22;32500;50.620;3.400;2023-03-23T04:50:52;15.70;73.60
46754;DHT22;32500;50.620;3.400;2023-03-23T04:53:18;15.70;73.70
46754;DHT22;32500;50.620;3.400;2023-03-23T04:55:44;15.70;73.70
46754;DHT22;32500;50.620;3.400;2023-03-23T04:58:11;15.70;73.70
46754;DHT22;32500;50.620;3.400;2023-03-23T05:00:40;15.70;73.70
46754;DHT22;32500;50.620;3.400;2023-03-23T05:03:12;15.70;73.70
46754;DHT22;32500;50.620;3.400;2023-03-23T05:05:42;15.70;73.70
46754;DHT22;32500;50.620;3.400;2023-03-23T05:08:08;15.70;73.70
46754;DHT22;32500;50.620;3.400;2023-03-23T05:10:34;15.70;73.60
46754;DHT22;32500;50.620;3.400;2023-03-23T05:12:59;15.60;73.70
46754;DHT22;32500;50.620;3.400;2023-03-23T05:15:25;15.60;73.80
46754;DHT22;32500;50.620;3.400;2023-03-23T05:17:54;15.70;73.70
46754;DHT22;32500;50.620;3.400;2023-03-23T05:20:21;15.60;73.70
46754;DHT22;32500;50.620;3.400;2023-03-23T05:22:47;15.60;73.70
46754;DHT22;32500;50.620;3.400;2023-03-23T05:25:16;15.60;73.80
46754;DHT22;32500;50.620;3.400;2023-03-23T05:27:44;15.60;73.90
46754;DHT22;32500;50.620;3.400;2023-03-23T05:30:15;15.60;73.80
46754;DHT22;32500;50.620;3.400;2023-03-23T05:32:45;15.60;73.70
46754;DHT22;32500;50.620;3.400;2023-03-23T05:35:12;15.60;73.80
46754;DHT22;32500;50.620;3.400;2023-03-23T05:37:38;15.60;73.80
46754;DHT22;32500;50.620;3.400;2023-03-23T05:40:05;15.60;73.80
46754;DHT22;32500;50.620;3.400;2023-03-23T05:42:35;15.60;73.90
46754;DHT22;32500;50.620;3.400;2023-03-23T05:45:04;15.60;73.80
46754;DHT22;32500;50.620;3.400;2023-03-23T05:47:31;15.60;73.80
46754;DHT22;32500;50.620;3.400;2023-03-23T05:49:57;15.60;74.50
46754;DHT22;32500;50.620;3.400;2023-03-23T05:52:23;15.60;73.70
46754;DHT22;32500;50.620;3.400;2023-03-23T05:54:50;15.60;73.80
46754;DHT22;32500;50.620;3.400;2023-03-23T05:57:17;15.60;73.80
46754;DHT22;32500;50.620;3.400;2023-03-23T05:59:44;15.60;73.70
46754;DHT22;32500;50.620;3.400;2023-03-23T06:02:11;15.60;73.70
46754;DHT22;32500;50.620;3.400;2023-03-23T06:04:39;15.60;73.70
46754;DHT22;32500;50.620;3.400;2023-03-23T06:07:06;15.60;73.90
46754;DHT22;32500;50.620;3.400;2023-03-23T06:09:32;15.60;73.70
46754;DHT22;32500;50.620;3.400;2023-03-23T06:11:58;15.60;73.50
46754;DHT22;32500;50.620;3.400;2023-03-23T06:14:24;15.50;73.60
46754;DHT22;32500;50.620;3.400;2023-03-23T06:16:49;15.60;73.80
46754;DHT22;32500;50.620;3.400;2023-03-23T06:19:15;15.50;73.90
46754;DHT22;32500;50.620;3.400;2023-03-23T06:21:42;15.50;73.90
46754;DHT22;32500;50.620;3.400;2023-03-23T06:24:08;15.50;73.90
46754;DHT22;32500;50.620;3.400;2023-03-23T06:26:38;15.50;73.90
46754;DHT22;32500;50.620;3.400;2023-03-23T06:29:05;15.50;73.80
46754;DHT22;32500;50.620;3.400;2023-03-23T06:31:40;15.50;73.70
46754;DHT22;32500;50.620;3.400;2023-03-23T06:34:07;15.50;73.70
46754;DHT22;32500;50.620;3.400;2023-03-23T06:36:34;15.50;73.80
46754;DHT22;32500;50.620;3.400;2023-03-23T06:39:00;15.50;73.90
46754;DHT22;32500;50.620;3.400;2023-03-23T06:41:26;15.50;74.00
46754;DHT22;32500;50.620;3.400;2023-03-23T06:43:52;15.50;74.00
46754;DHT22;32500;50.620;3.400;2023-03-23T06:46:18;15.50;74.00
46754;DHT22;32500;50.620;3.400;2023-03-23T06:48:44;15.50;74.00
46754;DHT22;32500;50.620;3.400;2023-03-23T06:51:10;15.50;73.80
46754;DHT22;32500;50.620;3.400;2023-03-23T06:53:35;15.50;73.90
46754;DHT22;32500;50.620;3.400;2023-03-23T06:56:01;15.50;74.00
46754;DHT22;32500;50.620;3.400;2023-03-23T06:58:27;15.50;74.00
46754;DHT22;32500;50.620;3.400;2023-03-23T07:00:56;15.50;74.10
46754;DHT22;32500;50.620;3.400;2023-03-23T07:03:23;15.50;74.20
46754;DHT22;32500;50.620;3.400;2023-03-23T07:05:49;15.50;74.30
46754;DHT22;32500;50.620;3.400;2023-03-23T07:08:15;15.50;74.30
46754;DHT22;32500;50.620;3.400;2023-03-23T07:10:41;15.50;74.30
46754;DHT22;32500;50.620;3.400;2023-03-23T07:13:07;15.50;74.50
46754;DHT22;32500;50.620;3.400;2023-03-23T07:15:33;15.50;74.60
46754;DHT22;32500;50.620;3.400;2023-03-23T07:17:58;15.50;74.60
46754;DHT22;32500;50.620;3.400;2023-03-23T07:20:24;15.40;74.80
46754;DHT22;32500;50.620;3.400;2023-03-23T07:22:50;15.40;74.70
46754;DHT22;32500;50.620;3.400;2023-03-23T07:25:17;15.40;74.70
46754;DHT22;32500;50.620;3.400;2023-03-23T07:27:45;15.50;74.80
46754;DHT22;32500;50.620;3.400;2023-03-23T07:30:12;15.40;74.80
46754;DHT22;32500;50.620;3.400;2023-03-23T07:32:38;15.40;74.80
46754;DHT22;32500;50.620;3.400;2023-03-23T07:35:04;15.40;75.00
46754;DHT22;32500;50.620;3.400;2023-03-23T07:37:30;15.40;74.90
46754;DHT22;32500;50.620;3.400;2023-03-23T07:39:57;15.40;75.00
46754;DHT22;32500;50.620;3.400;2023-03-23T07:42:23;15.40;75.00
46754;DHT22;32500;50.620;3.400;2023-03-23T07:44:49;15.40;75.10
46754;DHT22;32500;50.620;3.400;2023-03-23T07:47:15;15.40;75.00
46754;DHT22;32500;50.620;3.400;2023-03-23T07:49:40;15.40;75.10
46754;DHT22;32500;50.620;3.400;2023-03-23T07:52:06;15.40;75.10
46754;DHT22;32500;50.620;3.400;2023-03-23T07:54:32;15.40;75.10
46754;DHT22;32500;50.620;3.400;2023-03-23T07:56:57;15.40;75.00
46754;DHT22;32500;50.620;3.400;2023-03-23T07:59:23;15.40;75.00
46754;DHT22;32500;50.620;3.400;2023-03-23T08:01:49;15.50;74.90
46754;DHT22;32500;50.620;3.400;2023-03-23T08:04:14;15.50;74.80
46754;DHT22;32500;50.620;3.400;2023-03-23T08:06:40;15.50;74.60
46754;DHT22;32500;50.620;3.400;2023-03-23T08:09:07;15.50;74.80
46754;DHT22;32500;50.620;3.400;2023-03-23T08:11:37;15.50;74.70
46754;DHT22;32500;50.620;3.400;2023-03-23T08:14:04;15.50;74.70
46754;DHT22;32500;50.620;3.400;2023-03-23T08:16:31;15.50;74.70
46754;DHT22;32500;50.620;3.400;2023-03-23T08:18:57;15.50;74.80
46754;DHT22;32500;50.620;3.400;2023-03-23T08:21:23;15.50;74.70
46754;DHT22;32500;50.620;3.400;2023-03-23T08:23:49;15.50;74.60
46754;DHT22;32500;50.620;3.400;2023-03-23T08:26:15;15.70;75.30
46754;DHT22;32500;50.620;3.400;2023-03-23T08:28:41;15.80;76.40
46754;DHT22;32500;50.620;3.400;2023-03-23T08:31:10;16.00;76.30
46754;DHT22;32500;50.620;3.400;2023-03-23T08:33:38;16.20;76.10
46754;DHT22;32500;50.620;3.400;2023-03-23T08:36:04;16.30;75.90
46754;DHT22;32500;50.620;3.400;2023-03-23T08:38:31;16.30;75.60
46754;DHT22;32500;50.620;3.400;2023-03-23T08:41:02;16.20;75.30
46754;DHT22;32500;50.620;3.400;2023-03-23T08:43:31;16.30;75.40
46754;DHT22;32500;50.620;3.400;2023-03-23T08:45:58;16.30;75.00
46754;DHT22;32500;50.620;3.400;2023-03-23T08:48:24;16.40;74.50
46754;DHT22;32500;50.620;3.400;2023-03-23T08:50:50;16.50;74.20
46754;DHT22;32500;50.620;3.400;2023-03-23T08:53:18;16.60;73.70
46754;DHT22;32500;50.620;3.400;2023-03-23T08:55:44;16.60;73.40
46754;DHT22;32500;50.620;3.400;2023-03-23T08:58:10;16.50;73.50
46754;DHT22;32500;50.620;3.400;2023-03-23T09:00:36;16.60;74.10
46754;DHT22;32500;50.620;3.400;2023-03-23T09:03:02;16.50;74.40
46754;DHT22;32500;50.620;3.400;2023-03-23T09:05:28;16.50;74.80
46754;DHT22;32500;50.620;3.400;2023-03-23T09:07:57;16.50;75.30
46754;DHT22;32500;50.620;3.400;2023-03-23T09:10:28;16.60;75.50
46754;DHT22;32500;50.620;3.400;2023-03-23T09:12:56;16.60;75.60
46754;DHT22;32500;50.620;3.400;2023-03-23T09:15:22;16.60;75.70
46754;DHT22;32500;50.620;3.400;2023-03-23T09:17:50;16.60;75.60
46754;DHT22;32500;50.620;3.400;2023-03-23T09:26:14;16.70;75.60
46754;DHT22;32500;50.620;3.400;2023-03-23T09:28:41;16.70;75.30
46754;DHT22;32500;50.620;3.400;2023-03-23T09:31:06;16.70;75.40
46754;DHT22;32500;50.620;3.400;2023-03-23T09:33:32;16.70;75.50
46754;DHT22;32500;50.620;3.400;2023-03-23T09:36:01;16.70;75.70
46754;DHT22;32500;50.620;3.400;2023-03-23T09:38:28;16.70;75.80
46754;DHT22;32500;50.620;3.400;2023-03-23T09:41:11;16.80;75.90
46754;DHT22;32500;50.620;3.400;2023-03-23T09:44:07;16.80;76.00
46754;DHT22;32500;50.620;3.400;2023-03-23T09:49:17;16.90;76.20
46754;DHT22;32500;50.620;3.400;2023-03-23T09:51:50;17.00;76.20
46754;DHT22;32500;50.620;3.400;2023-03-23T09:54:30;17.00;75.80
46754;DHT22;32500;50.620;3.400;2023-03-23T09:56:59;17.10;75.70
46754;DHT22;32500;50.620;3.400;2023-03-23T10:02:01;17.10;75.50
46754;DHT22;32500;50.620;3.400;2023-03-23T10:04:47;17.10;75.40
46754;DHT22;32500;50.620;3.400;2023-03-23T10:07:17;17.20;75.30
46754;DHT22;32500;50.620;3.400;2023-03-23T10:09:48;17.20;75.30
46754;DHT22;32500;50.620;3.400;2023-03-23T10:12:42;17.20;75.30
46754;DHT22;32500;50.620;3.400;2023-03-23T10:15:42;17.30;75.00
46754;DHT22;32500;50.620;3.400;2023-03-23T10:18:02;17.30;75.20
46754;DHT22;32500;50.620;3.400;2023-03-23T10:20:57;17.30;75.30
46754;DHT22;32500;50.620;3.400;2023-03-23T10:23:52;17.30;75.00
46754;DHT22;32500;50.620;3.400;2023-03-23T10:29:27;17.40;74.80
46754;DHT22;32500;50.620;3.400;2023-03-23T10:31:58;17.50;74.70
46754;DHT22;32500;50.620;3.400;2023-03-23T10:37:47;17.50;74.70
46754;DHT22;32500;50.620;3.400;2023-03-23T10:40:12;17.60;74.70
46754;DHT22;32500;50.620;3.400;2023-03-23T10:42:40;17.70;74.80
46754;DHT22;32500;50.620;3.400;2023-03-23T10:45:27;17.70;74.10
46754;DHT22;32500;50.620;3.400;2023-03-23T10:50:55;17.80;73.90
46754;DHT22;32500;50.620;3.400;2023-03-23T10:53:29;17.80;74.10
46754;DHT22;32500;50.620;3.400;2023-03-23T10:55:57;17.80;73.90
46754;DHT22;32500;50.620;3.400;2023-03-23T10:58:32;17.90;73.10
46754;DHT22;32500;50.620;3.400;2023-03-23T11:01:00;17.90;72.50
46754;DHT22;32500;50.620;3.400;2023-03-23T11:06:03;17.90;72.90
46754;DHT22;32500;50.620;3.400;2023-03-23T11:08:34;17.70;73.10
46754;DHT22;32500;50.620;3.400;2023-03-23T11:11:24;17.70;73.30
46754;DHT22;32500;50.620;3.400;2023-03-23T11:14:12;17.60;73.10
46754;DHT22;32500;50.620;3.400;2023-03-23T11:16:50;17.70;73.00
46754;DHT22;32500;50.620;3.400;2023-03-23T11:19:26;17.70;73.40
46754;DHT22;32500;50.620;3.400;2023-03-23T11:21:54;17.80;72.50
46754;DHT22;32500;50.620;3.400;2023-03-23T11:24:25;17.80;72.20
46754;DHT22;32500;50.620;3.400;2023-03-23T11:26:52;17.70;71.90
46754;DHT22;32500;50.620;3.400;2023-03-23T11:29:27;17.80;71.80
46754;DHT22;32500;50.620;3.400;2023-03-23T11:32:05;17.80;71.80
46754;DHT22;32500;50.620;3.400;2023-03-23T11:34:44;17.80;71.70
46754;DHT22;32500;50.620;3.400;2023-03-23T11:37:29;17.90;71.50
46754;DHT22;32500;50.620;3.400;2023-03-23T11:40:14;17.90;71.40
46754;DHT22;32500;50.620;3.400;2023-03-23T11:42:47;17.80;71.50
46754;DHT22;32500;50.620;3.400;2023-03-23T11:45:35;17.80;71.60
46754;DHT22;32500;50.620;3.400;2023-03-23T11:50:54;18.00;72.70
46754;DHT22;32500;50.620;3.400;2023-03-23T11:53:45;18.00;73.00
46754;DHT22;32500;50.620;3.400;2023-03-23T11:56:24;18.00;73.30
46754;DHT22;32500;50.620;3.400;2023-03-23T11:58:54;18.10;73.40
46754;DHT22;32500;50.620;3.400;2023-03-23T12:26:30;18.40;72.90
46754;DHT22;32500;50.620;3.400;2023-03-23T12:36:53;18.30;72.60
46754;DHT22;32500;50.620;3.400;2023-03-23T12:44:54;18.30;73.80
46754;DHT22;32500;50.620;3.400;2023-03-23T12:47:43;18.40;74.10
46754;DHT22;32500;50.620;3.400;2023-03-23T12:50:20;18.40;74.40
46754;DHT22;32500;50.620;3.400;2023-03-23T12:52:58;18.40;74.40
46754;DHT22;32500;50.620;3.400;2023-03-23T12:55:45;18.40;74.30
46754;DHT22;32500;50.620;3.400;2023-03-23T12:58:17;18.40;74.60
46754;DHT22;32500;50.620;3.400;2023-03-23T13:11:46;18.40;75.10
46754;DHT22;32500;50.620;3.400;2023-03-23T13:20:32;18.50;75.40
46754;DHT22;32500;50.620;3.400;2023-03-23T13:23:07;18.50;75.40
46754;DHT22;32500;50.620;3.400;2023-03-23T13:28:29;18.50;75.50
46754;DHT22;32500;50.620;3.400;2023-03-23T13:31:13;18.50;75.50
46754;DHT22;32500;50.620;3.400;2023-03-23T13:33:58;18.60;75.70
46754;DHT22;32500;50.620;3.400;2023-03-23T13:36:33;18.60;75.60
46754;DHT22;32500;50.620;3.400;2023-03-23T13:39:03;18.60;75.50
46754;DHT22;32500;50.620;3.400;2023-03-23T13:41:33;18.60;75.60
46754;DHT22;32500;50.620;3.400;2023-03-23T13:44:26;18.60;75.60
46754;DHT22;32500;50.620;3.400;2023-03-23T13:47:03;18.60;75.70
46754;DHT22;32500;50.620;3.400;2023-03-23T13:49:32;18.60;75.70
46754;DHT22;32500;50.620;3.400;2023-03-23T13:55:07;18.60;75.70
46754;DHT22;32500;50.620;3.400;2023-03-23T13:57:36;18.60;75.90
46754;DHT22;32500;50.620;3.400;2023-03-23T14:00:25;18.60;75.40
46754;DHT22;32500;50.620;3.400;2023-03-23T14:03:00;18.60;74.00
46754;DHT22;32500;50.620;3.400;2023-03-23T14:05:34;18.60;74.20
46754;DHT22;32500;50.620;3.400;2023-03-23T14:08:12;18.60;74.00
46754;DHT22;32500;50.620;3.400;2023-03-23T14:16:03;18.60;74.00
46754;DHT22;32500;50.620;3.400;2023-03-23T14:18:39;18.60;73.90
46754;DHT22;32500;50.620;3.400;2023-03-23T14:21:15;18.60;73.60
46754;DHT22;32500;50.620;3.400;2023-03-23T14:23:42;18.50;72.90
46754;DHT22;32500;50.620;3.400;2023-03-23T14:26:14;18.60;73.40
46754;DHT22;32500;50.620;3.400;2023-03-23T14:28:44;18.70;73.40
46754;DHT22;32500;50.620;3.400;2023-03-23T14:31:24;18.70;73.30
46754;DHT22;32500;50.620;3.400;2023-03-23T14:33:52;18.80;73.20
46754;DHT22;32500;50.620;3.400;2023-03-23T14:36:23;18.80;73.30
46754;DHT22;32500;50.620;3.400;2023-03-23T14:38:59;18.80;73.30
46754;DHT22;32500;50.620;3.400;2023-03-23T14:41:29;18.80;73.40
46754;DHT22;32500;50.620;3.400;2023-03-23T14:43:55;18.80;73.50
46754;DHT22;32500;50.620;3.400;2023-03-23T14:46:21;18.80;73.40
46754;DHT22;32500;50.620;3.400;2023-03-23T14:48:46;18.80;73.60
46754;DHT22;32500;50.620;3.400;2023-03-23T14:51:19;18.90;73.80
46754;DHT22;32500;50.620;3.400;2023-03-23T14:53:45;18.90;73.90
46754;DHT22;32500;50.620;3.400;2023-03-23T14:56:15;18.90;74.00
46754;DHT22;32500;50.620;3.400;2023-03-23T14:58:45;18.80;73.80
46754;DHT22;32500;50.620;3.400;2023-03-23T15:01:15;18.80;74.00
46754;DHT22;32500;50.620;3.400;2023-03-23T15:03:44;18.90;74.00
46754;DHT22;32500;50.620;3.400;2023-03-23T15:06:17;18.90;74.00
46754;DHT22;32500;50.620;3.400;2023-03-23T15:08:44;18.90;74.00
46754;DHT22;32500;50.620;3.400;2023-03-23T15:11:23;18.90;74.00
46754;DHT22;32500;50.620;3.400;2023-03-23T15:13:52;19.00;74.00
46754;DHT22;32500;50.620;3.400;2023-03-23T15:16:27;19.00;73.90
46754;DHT22;32500;50.620;3.400;2023-03-23T15:18:55;19.00;73.70
46754;DHT22;32500;50.620;3.400;2023-03-23T15:21:29;19.00;73.70
46754;DHT22;32500;50.620;3.400;2023-03-23T15:23:55;19.10;73.60
46754;DHT22;32500;50.620;3.400;2023-03-23T15:26:29;19.10;73.60
46754;DHT22;32500;50.620;3.400;2023-03-23T15:29:22;19.10;73.60
46754;DHT22;32500;50.620;3.400;2023-03-23T15:31:55;19.10;73.60
46754;DHT22;32500;50.620;3.400;2023-03-23T15:37:04;19.10;73.40
46754;DHT22;32500;50.620;3.400;2023-03-23T15:39:31;19.10;73.60
46754;DHT22;32500;50.620;3.400;2023-03-23T15:41:58;19.10;73.50
46754;DHT22;32500;50.620;3.400;2023-03-23T15:44:33;19.10;73.60
46754;DHT22;32500;50.620;3.400;2023-03-23T15:47:18;19.10;72.50
46754;DHT22;32500;50.620;3.400;2023-03-23T15:49:59;19.00;72.30
46754;DHT22;32500;50.620;3.400;2023-03-23T15:52:26;19.00;72.60
46754;DHT22;32500;50.620;3.400;2023-03-23T15:54:52;19.00;71.70
46754;DHT22;32500;50.620;3.400;2023-03-23T15:57:18;18.90;72.10
46754;DHT22;32500;50.620;3.400;2023-03-23T15:59:44;18.80;71.20
46754;DHT22;32500;50.620;3.400;2023-03-23T16:02:17;18.80;71.90
46754;DHT22;32500;50.620;3.400;2023-03-23T16:04:44;18.90;71.70
46754;DHT22;32500;50.620;3.400;2023-03-23T16:07:13;18.80;71.50
46754;DHT22;32500;50.620;3.400;2023-03-23T16:09:39;18.80;71.30
46754;DHT22;32500;50.620;3.400;2023-03-23T16:12:11;18.80;71.00
46754;DHT22;32500;50.620;3.400;2023-03-23T16:14:38;18.80;71.70
46754;DHT22;32500;50.620;3.400;2023-03-23T16:17:04;18.90;72.10
46754;DHT22;32500;50.620;3.400;2023-03-23T16:19:30;19.00;72.50
46754;DHT22;32500;50.620;3.400;2023-03-23T16:21:56;19.00;72.70
46754;DHT22;32500;50.620;3.400;2023-03-23T16:24:22;18.90;70.60
46754;DHT22;32500;50.620;3.400;2023-03-23T16:26:48;19.00;72.00
46754;DHT22;32500;50.620;3.400;2023-03-23T16:29:15;19.10;72.10
46754;DHT22;32500;50.620;3.400;2023-03-23T16:31:41;19.00;71.00
46754;DHT22;32500;50.620;3.400;2023-03-23T16:34:07;19.00;70.30
46754;DHT22;32500;50.620;3.400;2023-03-23T16:36:33;18.80;70.00
46754;DHT22;32500;50.620;3.400;2023-03-23T16:38:59;18.80;69.70
46754;DHT22;32500;50.620;3.400;2023-03-23T16:41:24;18.90;69.60
46754;DHT22;32500;50.620;3.400;2023-03-23T16:43:50;18.80;70.50
46754;DHT22;32500;50.620;3.400;2023-03-23T16:46:16;18.70;70.20
46754;DHT22;32500;50.620;3.400;2023-03-23T16:48:42;18.80;70.30
46754;DHT22;32500;50.620;3.400;2023-03-23T16:51:08;18.80;70.00
46754;DHT22;32500;50.620;3.400;2023-03-23T16:53:33;18.80;70.00
46754;DHT22;32500;50.620;3.400;2023-03-23T16:56:00;18.70;70.30
46754;DHT22;32500;50.620;3.400;2023-03-23T16:58:26;18.80;70.00
46754;DHT22;32500;50.620;3.400;2023-03-23T17:00:52;18.70;69.90
46754;DHT22;32500;50.620;3.400;2023-03-23T17:03:19;18.80;70.00
46754;DHT22;32500;50.620;3.400;2023-03-23T17:05:50;18.70;69.70
46754;DHT22;32500;50.620;3.400;2023-03-23T17:08:17;18.80;69.80
46754;DHT22;32500;50.620;3.400;2023-03-23T17:10:43;18.80;70.20
46754;DHT22;32500;50.620;3.400;2023-03-23T17:13:09;18.80;69.20
46754;DHT22;32500;50.620;3.400;2023-03-23T17:15:40;18.70;68.90
46754;DHT22;32500;50.620;3.400;2023-03-23T17:18:06;18.60;69.50
46754;DHT22;32500;50.620;3.400;2023-03-23T17:20:33;18.60;69.30
46754;DHT22;32500;50.620;3.400;2023-03-23T17:23:00;18.60;68.60
46754;DHT22;32500;50.620;3.400;2023-03-23T17:25:27;18.60;68.10
46754;DHT22;32500;50.620;3.400;2023-03-23T17:27:55;18.60;67.90
46754;DHT22;32500;50.620;3.400;2023-03-23T17:30:21;18.70;67.90
46754;DHT22;32500;50.620;3.400;2023-03-23T17:32:46;18.60;68.20
46754;DHT22;32500;50.620;3.400;2023-03-23T17:35:13;18.60;68.00
46754;DHT22;32500;50.620;3.400;2023-03-23T17:37:38;18.60;67.80
46754;DHT22;32500;50.620;3.400;2023-03-23T17:40:05;18.60;68.50
46754;DHT22;32500;50.620;3.400;2023-03-23T17:42:35;18.60;67.90
46754;DHT22;32500;50.620;3.400;2023-03-23T17:45:01;18.50;67.80
46754;DHT22;32500;50.620;3.400;2023-03-23T17:47:27;18.50;67.90